PWSweather.com
Personal Weather Stations
Station Observations
KTXROWLE6
Ravens Nest, Rowlett, TX 75089

Ravens NestRowlett, TX 75089

Lat: 32.93105, Lon: -96.57368

Elevation: 556

Station Type: Davis Vantage Pro2 6152

http://rowlett.ws

High Low Average
Temperature 92.6°F33.7°C 70.6°F21.4°C 82.4°F28.0°C
Dew Point 69.9°F21.1°C 63.0°F17.2°C 65.7°F18.7°C
Winds 5.8 mph 9.3 kmh Calm Calm 3.0 mph SE4.8 kmh SE
Wind Gusts 12.0 mph19.3 kmh -- 6.0 mph9.7 kmh
Humidity 78% 39% 59%
Pressure 29.94 in1013.9 mb 29.84 in1010.5 mb -
Precipitation 0.00 in0.0 mm - -
Hour Temp Dew Point Humidity Winds Wind Gusts Pressure Precip Precip Rate Daily Precip Total
12:00 AM 76.1°F24.5°C 64.3°F17.9°C 67% 2.8 mph ENE4.5 kmh ENE 7.0 mph11.3 kmh 29.89 in1012.2 mb 0.00 in0.0 mm 0.00 in0.0 mm 0.00 in0.0 mm
12:05 AM 76.0°F24.4°C 64.2°F17.9°C 67% 2.9 mph E4.7 kmh E 7.0 mph11.3 kmh 29.89 in1012.2 mb 0.00 in0.0 mm 0.00 in0.0 mm 0.00 in0.0 mm
12:10 AM 75.9°F24.4°C 64.1°F17.8°C 67% 2.2 mph E3.5 kmh E 6.0 mph9.7 kmh 29.89 in1012.2 mb 0.00 in0.0 mm 0.00 in0.0 mm 0.00 in0.0 mm
12:15 AM 75.6°F24.2°C 64.3°F17.9°C 68% 2.1 mph E3.4 kmh E 7.0 mph11.3 kmh 29.89 in1012.2 mb 0.00 in0.0 mm 0.00 in0.0 mm 0.00 in0.0 mm
12:20 AM 75.5°F24.2°C 64.2°F17.9°C 68% 2.1 mph ENE3.4 kmh ENE 7.0 mph11.3 kmh 29.89 in1012.2 mb 0.00 in0.0 mm 0.00 in0.0 mm 0.00 in0.0 mm
12:25 AM 75.2°F24.0°C 63.9°F17.7°C 68% 1.4 mph ENE2.3 kmh ENE 6.0 mph9.7 kmh 29.89 in1012.2 mb 0.00 in0.0 mm 0.00 in0.0 mm 0.00 in0.0 mm
12:30 AM 75.1°F23.9°C 64.2°F17.9°C 69% 1.7 mph E2.7 kmh E 5.0 mph8.0 kmh 29.89 in1012.2 mb 0.00 in0.0 mm 0.00 in0.0 mm 0.00 in0.0 mm
12:35 AM 74.9°F23.8°C 64.0°F17.8°C 69% 1.0 mph E1.6 kmh E 3.0 mph4.8 kmh 29.89 in1012.2 mb 0.00 in0.0 mm 0.00 in0.0 mm 0.00 in0.0 mm
12:40 AM 74.8°F23.8°C 63.9°F17.7°C 69% 1.8 mph E2.9 kmh E 5.0 mph8.0 kmh 29.89 in1012.2 mb 0.00 in0.0 mm 0.00 in0.0 mm 0.00 in0.0 mm
12:45 AM 74.7°F23.7°C 63.8°F17.7°C 69% 1.2 mph E1.9 kmh E 5.0 mph8.0 kmh 29.89 in1012.2 mb 0.00 in0.0 mm 0.00 in0.0 mm 0.00 in0.0 mm
12:50 AM 74.5°F23.6°C 63.6°F17.6°C 69% 0.9 mph E1.4 kmh E 5.0 mph8.0 kmh 29.89 in1012.2 mb 0.00 in0.0 mm 0.00 in0.0 mm 0.00 in0.0 mm
12:55 AM 74.1°F23.4°C 63.7°F17.6°C 70% 0.3 mph E0.5 kmh E 2.0 mph3.2 kmh 29.89 in1012.2 mb 0.00 in0.0 mm 0.00 in0.0 mm 0.00 in0.0 mm
01:00 AM 73.9°F23.3°C 63.5°F17.5°C 70% 0.1 mph E0.2 kmh E 2.0 mph3.2 kmh 29.89 in1012.2 mb 0.00 in0.0 mm 0.00 in0.0 mm 0.00 in0.0 mm
01:05 AM 74.0°F23.3°C 63.6°F17.6°C 70% 0.6 mph E1.0 kmh E 3.0 mph4.8 kmh 29.89 in1012.2 mb 0.00 in0.0 mm 0.00 in0.0 mm 0.00 in0.0 mm
01:10 AM 73.9°F23.3°C 63.5°F17.5°C 70% 0.6 mph E1.0 kmh E 3.0 mph4.8 kmh 29.89 in1012.2 mb 0.00 in0.0 mm 0.00 in0.0 mm 0.00 in0.0 mm
01:15 AM 73.8°F23.2°C 63.4°F17.4°C 70% 0.4 mph E0.6 kmh E 3.0 mph4.8 kmh 29.88 in1011.9 mb 0.00 in0.0 mm 0.00 in0.0 mm 0.00 in0.0 mm
01:20 AM 73.6°F23.1°C 63.6°F17.6°C 71% 0.2 mph E0.3 kmh E 2.0 mph3.2 kmh 29.89 in1012.2 mb 0.00 in0.0 mm 0.00 in0.0 mm 0.00 in0.0 mm
01:25 AM 73.5°F23.1°C 63.5°F17.5°C 71% 0.1 mph E0.2 kmh E 2.0 mph3.2 kmh 29.89 in1012.2 mb 0.00 in0.0 mm 0.00 in0.0 mm 0.00 in0.0 mm
01:30 AM 73.5°F23.1°C 63.5°F17.5°C 71% 0.8 mph E1.3 kmh E 2.0 mph3.2 kmh 29.89 in1012.2 mb 0.00 in0.0 mm 0.00 in0.0 mm 0.00 in0.0 mm
01:35 AM 73.4°F23.0°C 63.4°F17.4°C 71% 0.3 mph E0.5 kmh E 2.0 mph3.2 kmh 29.89 in1012.2 mb 0.00 in0.0 mm 0.00 in0.0 mm 0.00 in0.0 mm
01:40 AM 73.3°F22.9°C 63.3°F17.4°C 71% 0.9 mph E1.4 kmh E 2.0 mph3.2 kmh 29.89 in1012.2 mb 0.00 in0.0 mm 0.00 in0.0 mm 0.00 in0.0 mm
01:45 AM 73.1°F22.8°C 63.5°F17.5°C 72% 0.7 mph E1.1 kmh E 2.0 mph3.2 kmh 29.89 in1012.2 mb 0.00 in0.0 mm 0.00 in0.0 mm 0.00 in0.0 mm
01:50 AM 72.8°F22.7°C 63.2°F17.3°C 72% 0.4 mph E0.6 kmh E 2.0 mph3.2 kmh 29.88 in1011.9 mb 0.00 in0.0 mm 0.00 in0.0 mm 0.00 in0.0 mm
01:55 AM 72.5°F22.5°C 63.3°F17.4°C 73% Calm Calm 2.0 mph3.2 kmh 29.88 in1011.9 mb 0.00 in0.0 mm 0.00 in0.0 mm 0.00 in0.0 mm
02:00 AM 72.5°F22.5°C 63.3°F17.4°C 73% 1.0 mph E1.6 kmh E 3.0 mph4.8 kmh 29.88 in1011.9 mb 0.00 in0.0 mm 0.00 in0.0 mm 0.00 in0.0 mm
02:05 AM 72.8°F22.7°C 63.6°F17.6°C 73% 0.9 mph E1.4 kmh E 3.0 mph4.8 kmh 29.88 in1011.9 mb 0.00 in0.0 mm 0.00 in0.0 mm 0.00 in0.0 mm
02:10 AM 72.6°F22.6°C 63.4°F17.4°C 73% 0.7 mph E1.1 kmh E 2.0 mph3.2 kmh 29.88 in1011.9 mb 0.00 in0.0 mm 0.00 in0.0 mm 0.00 in0.0 mm
02:15 AM 72.4°F22.4°C 63.2°F17.3°C 73% 0.9 mph E1.4 kmh E 2.0 mph3.2 kmh 29.88 in1011.9 mb 0.00 in0.0 mm 0.00 in0.0 mm 0.00 in0.0 mm
02:20 AM 72.2°F22.3°C 63.4°F17.4°C 74% 0.8 mph E1.3 kmh E 2.0 mph3.2 kmh 29.88 in1011.9 mb 0.00 in0.0 mm 0.00 in0.0 mm 0.00 in0.0 mm
02:25 AM 72.1°F22.3°C 63.3°F17.4°C 74% 0.4 mph E0.6 kmh E 2.0 mph3.2 kmh 29.88 in1011.9 mb 0.00 in0.0 mm 0.00 in0.0 mm 0.00 in0.0 mm
02:30 AM 72.2°F22.3°C 63.4°F17.4°C 74% 0.6 mph E1.0 kmh E 2.0 mph3.2 kmh 29.88 in1011.9 mb 0.00 in0.0 mm 0.00 in0.0 mm 0.00 in0.0 mm
02:35 AM 72.2°F22.3°C 63.4°F17.4°C 74% 1.1 mph E1.8 kmh E 2.0 mph3.2 kmh 29.88 in1011.9 mb 0.00 in0.0 mm 0.00 in0.0 mm 0.00 in0.0 mm
02:40 AM 72.3°F22.4°C 63.5°F17.5°C 74% 1.4 mph E2.3 kmh E 5.0 mph8.0 kmh 29.88 in1011.9 mb 0.00 in0.0 mm 0.00 in0.0 mm 0.00 in0.0 mm
02:45 AM 72.4°F22.4°C 63.6°F17.6°C 74% 1.4 mph E2.3 kmh E 5.0 mph8.0 kmh 29.89 in1012.2 mb 0.00 in0.0 mm 0.00 in0.0 mm 0.00 in0.0 mm
02:50 AM 72.5°F22.5°C 63.7°F17.6°C 74% 1.5 mph E2.4 kmh E 3.0 mph4.8 kmh 29.89 in1012.2 mb 0.00 in0.0 mm 0.00 in0.0 mm 0.00 in0.0 mm
02:55 AM 72.4°F22.4°C 63.6°F17.6°C 74% 1.7 mph E2.7 kmh E 3.0 mph4.8 kmh 29.89 in1012.2 mb 0.00 in0.0 mm 0.00 in0.0 mm 0.00 in0.0 mm
03:00 AM 72.4°F22.4°C 63.6°F17.6°C 74% 2.0 mph NNE3.2 kmh NNE 3.0 mph4.8 kmh 29.89 in1012.2 mb 0.00 in0.0 mm 0.00 in0.0 mm 0.00 in0.0 mm
03:05 AM 72.5°F22.5°C 63.7°F17.6°C 74% 1.7 mph NNE2.7 kmh NNE 3.0 mph4.8 kmh 29.88 in1011.9 mb 0.00 in0.0 mm 0.00 in0.0 mm 0.00 in0.0 mm
03:10 AM 72.5°F22.5°C 63.7°F17.6°C 74% 1.8 mph NNE2.9 kmh NNE 4.0 mph6.4 kmh 29.88 in1011.9 mb 0.00 in0.0 mm 0.00 in0.0 mm 0.00 in0.0 mm
03:15 AM 72.5°F22.5°C 63.7°F17.6°C 74% 1.1 mph NNE1.8 kmh NNE 4.0 mph6.4 kmh 29.88 in1011.9 mb 0.00 in0.0 mm 0.00 in0.0 mm 0.00 in0.0 mm
03:20 AM 72.3°F22.4°C 63.5°F17.5°C 74% 1.1 mph NNE1.8 kmh NNE 3.0 mph4.8 kmh 29.88 in1011.9 mb 0.00 in0.0 mm 0.00 in0.0 mm 0.00 in0.0 mm
03:25 AM 72.2°F22.3°C 63.4°F17.4°C 74% 1.3 mph NNE2.1 kmh NNE 3.0 mph4.8 kmh 29.88 in1011.9 mb 0.00 in0.0 mm 0.00 in0.0 mm 0.00 in0.0 mm
03:30 AM 72.1°F22.3°C 63.7°F17.6°C 75% 1.6 mph NNE2.6 kmh NNE 3.0 mph4.8 kmh 29.88 in1011.9 mb 0.00 in0.0 mm 0.00 in0.0 mm 0.00 in0.0 mm
03:35 AM 72.2°F22.3°C 63.8°F17.7°C 75% 1.4 mph NNE2.3 kmh NNE 3.0 mph4.8 kmh 29.88 in1011.9 mb 0.00 in0.0 mm 0.00 in0.0 mm 0.00 in0.0 mm
03:40 AM 72.0°F22.2°C 63.6°F17.6°C 75% 1.5 mph NNE2.4 kmh NNE 3.0 mph4.8 kmh 29.88 in1011.9 mb 0.00 in0.0 mm 0.00 in0.0 mm 0.00 in0.0 mm
03:45 AM 71.8°F22.1°C 63.4°F17.4°C 75% 1.8 mph NNE2.9 kmh NNE 3.0 mph4.8 kmh 29.88 in1011.9 mb 0.00 in0.0 mm 0.00 in0.0 mm 0.00 in0.0 mm
03:50 AM 71.7°F22.1°C 63.3°F17.4°C 75% 1.5 mph NNE2.4 kmh NNE 3.0 mph4.8 kmh 29.88 in1011.9 mb 0.00 in0.0 mm 0.00 in0.0 mm 0.00 in0.0 mm
03:55 AM 71.5°F21.9°C 63.5°F17.5°C 76% 0.6 mph NNE1.0 kmh NNE 2.0 mph3.2 kmh 29.88 in1011.9 mb 0.00 in0.0 mm 0.00 in0.0 mm 0.00 in0.0 mm
04:00 AM 71.3°F21.8°C 63.3°F17.4°C 76% 0.3 mph NNE0.5 kmh NNE 2.0 mph3.2 kmh 29.88 in1011.9 mb 0.00 in0.0 mm 0.00 in0.0 mm 0.00 in0.0 mm
04:05 AM 71.3°F21.8°C 63.3°F17.4°C 76% 0.6 mph NNE1.0 kmh NNE 1.0 mph1.6 kmh 29.88 in1011.9 mb 0.00 in0.0 mm 0.00 in0.0 mm 0.00 in0.0 mm
04:10 AM 71.3°F21.8°C 63.3°F17.4°C 76% 0.8 mph NNE1.3 kmh NNE 2.0 mph3.2 kmh 29.89 in1012.2 mb 0.00 in0.0 mm 0.00 in0.0 mm 0.00 in0.0 mm
04:15 AM 71.3°F21.8°C 63.3°F17.4°C 76% 0.2 mph NNE0.3 kmh NNE 2.0 mph3.2 kmh 29.89 in1012.2 mb 0.00 in0.0 mm 0.00 in0.0 mm 0.00 in0.0 mm
04:20 AM 71.4°F21.9°C 63.4°F17.4°C 76% 0.2 mph NNE0.3 kmh NNE 2.0 mph3.2 kmh 29.89 in1012.2 mb 0.00 in0.0 mm 0.00 in0.0 mm 0.00 in0.0 mm
04:25 AM 71.3°F21.8°C 63.3°F17.4°C 76% Calm Calm 2.0 mph3.2 kmh 29.89 in1012.2 mb 0.00 in0.0 mm 0.00 in0.0 mm 0.00 in0.0 mm
04:30 AM 71.1°F21.7°C 63.5°F17.5°C 77% Calm Calm -- 29.90 in1012.5 mb 0.00 in0.0 mm 0.00 in0.0 mm 0.00 in0.0 mm
04:35 AM 71.0°F21.7°C 63.4°F17.4°C 77% Calm Calm -- 29.90 in1012.5 mb 0.00 in0.0 mm 0.00 in0.0 mm 0.00 in0.0 mm
04:40 AM 71.1°F21.7°C 63.5°F17.5°C 77% Calm Calm -- 29.90 in1012.5 mb 0.00 in0.0 mm 0.00 in0.0 mm 0.00 in0.0 mm
04:45 AM 71.0°F21.7°C 63.4°F17.4°C 77% Calm Calm -- 29.90 in1012.5 mb 0.00 in0.0 mm 0.00 in0.0 mm 0.00 in0.0 mm
04:50 AM 71.0°F21.7°C 63.4°F17.4°C 77% Calm Calm -- 29.90 in1012.5 mb 0.00 in0.0 mm 0.00 in0.0 mm 0.00 in0.0 mm
04:55 AM 71.0°F21.7°C 63.4°F17.4°C 77% Calm Calm -- 29.90 in1012.5 mb 0.00 in0.0 mm 0.00 in0.0 mm 0.00 in0.0 mm
05:00 AM 71.0°F21.7°C 63.4°F17.4°C 77% Calm Calm -- 29.90 in1012.5 mb 0.00 in0.0 mm 0.00 in0.0 mm 0.00 in0.0 mm
05:05 AM 70.6°F21.4°C 63.0°F17.2°C 77% Calm Calm -- 29.90 in1012.5 mb 0.00 in0.0 mm 0.00 in0.0 mm 0.00 in0.0 mm
05:10 AM 70.6°F21.4°C 63.4°F17.4°C 78% Calm Calm -- 29.91 in1012.9 mb 0.00 in0.0 mm 0.00 in0.0 mm 0.00 in0.0 mm
05:15 AM 70.7°F21.5°C 63.5°F17.5°C 78% Calm Calm -- 29.91 in1012.9 mb 0.00 in0.0 mm 0.00 in0.0 mm 0.00 in0.0 mm
05:20 AM 71.3°F21.8°C 64.1°F17.8°C 78% 1.4 mph NNE2.3 kmh NNE 4.0 mph6.4 kmh 29.91 in1012.9 mb 0.00 in0.0 mm 0.00 in0.0 mm 0.00 in0.0 mm
05:25 AM 71.5°F21.9°C 63.9°F17.7°C 77% 1.9 mph NNE3.1 kmh NNE 4.0 mph6.4 kmh 29.91 in1012.9 mb 0.00 in0.0 mm 0.00 in0.0 mm 0.00 in0.0 mm
05:30 AM 71.4°F21.9°C 63.8°F17.7°C 77% 1.7 mph NNE2.7 kmh NNE 3.0 mph4.8 kmh 29.91 in1012.9 mb 0.00 in0.0 mm 0.00 in0.0 mm 0.00 in0.0 mm
05:35 AM 71.3°F21.8°C 63.7°F17.6°C 77% 0.9 mph NNE1.4 kmh NNE 3.0 mph4.8 kmh 29.92 in1013.2 mb 0.00 in0.0 mm 0.00 in0.0 mm 0.00 in0.0 mm
05:40 AM 71.4°F21.9°C 63.8°F17.7°C 77% 1.5 mph NNE2.4 kmh NNE 3.0 mph4.8 kmh 29.92 in1013.2 mb 0.00 in0.0 mm 0.00 in0.0 mm 0.00 in0.0 mm
05:45 AM 71.5°F21.9°C 63.9°F17.7°C 77% 1.5 mph NNE2.4 kmh NNE 4.0 mph6.4 kmh 29.92 in1013.2 mb 0.00 in0.0 mm 0.00 in0.0 mm 0.00 in0.0 mm
05:50 AM 71.5°F21.9°C 63.9°F17.7°C 77% 1.9 mph NNE3.1 kmh NNE 4.0 mph6.4 kmh 29.92 in1013.2 mb 0.00 in0.0 mm 0.00 in0.0 mm 0.00 in0.0 mm
05:55 AM 71.5°F21.9°C 63.9°F17.7°C 77% 1.6 mph NNE2.6 kmh NNE 3.0 mph4.8 kmh 29.92 in1013.2 mb 0.00 in0.0 mm 0.00 in0.0 mm 0.00 in0.0 mm
06:00 AM 71.6°F22.0°C 64.0°F17.8°C 77% 1.9 mph NNE3.1 kmh NNE 4.0 mph6.4 kmh 29.92 in1013.2 mb 0.00 in0.0 mm 0.00 in0.0 mm 0.00 in0.0 mm
06:05 AM 71.6°F22.0°C 64.0°F17.8°C 77% 1.6 mph NNE2.6 kmh NNE 4.0 mph6.4 kmh 29.92 in1013.2 mb 0.00 in0.0 mm 0.00 in0.0 mm 0.00 in0.0 mm
06:10 AM 71.8°F22.1°C 64.6°F18.1°C 78% 1.9 mph NNE3.1 kmh NNE 3.0 mph4.8 kmh 29.92 in1013.2 mb 0.00 in0.0 mm 0.00 in0.0 mm 0.00 in0.0 mm
06:15 AM 72.2°F22.3°C 64.9°F18.3°C 78% 1.6 mph NNE2.6 kmh NNE 3.0 mph4.8 kmh 29.92 in1013.2 mb 0.00 in0.0 mm 0.00 in0.0 mm 0.00 in0.0 mm
06:20 AM 72.5°F22.5°C 64.9°F18.3°C 77% 2.1 mph NNE3.4 kmh NNE 4.0 mph6.4 kmh 29.92 in1013.2 mb 0.00 in0.0 mm 0.00 in0.0 mm 0.00 in0.0 mm
06:25 AM 72.8°F22.7°C 65.2°F18.4°C 77% 1.9 mph NNE3.1 kmh NNE 4.0 mph6.4 kmh 29.92 in1013.2 mb 0.00 in0.0 mm 0.00 in0.0 mm 0.00 in0.0 mm
06:30 AM 73.2°F22.9°C 65.2°F18.4°C 76% 2.2 mph NNE3.5 kmh NNE 4.0 mph6.4 kmh 29.92 in1013.2 mb 0.00 in0.0 mm 0.00 in0.0 mm 0.00 in0.0 mm
06:35 AM 73.5°F23.1°C 65.1°F18.4°C 75% 1.9 mph NE3.1 kmh NE 4.0 mph6.4 kmh 29.92 in1013.2 mb 0.00 in0.0 mm 0.00 in0.0 mm 0.00 in0.0 mm
06:40 AM 73.7°F23.2°C 65.3°F18.5°C 75% 3.1 mph NE5.0 kmh NE 5.0 mph8.0 kmh 29.92 in1013.2 mb 0.00 in0.0 mm 0.00 in0.0 mm 0.00 in0.0 mm
06:45 AM 73.9°F23.3°C 65.1°F18.4°C 74% 2.9 mph NE4.7 kmh NE 5.0 mph8.0 kmh 29.92 in1013.2 mb 0.00 in0.0 mm 0.00 in0.0 mm 0.00 in0.0 mm
06:50 AM 74.2°F23.4°C 65.4°F18.6°C 74% 3.2 mph NE5.1 kmh NE 5.0 mph8.0 kmh 29.93 in1013.5 mb 0.00 in0.0 mm 0.00 in0.0 mm 0.00 in0.0 mm
06:55 AM 74.3°F23.5°C 65.5°F18.6°C 74% 3.0 mph NE4.8 kmh NE 6.0 mph9.7 kmh 29.93 in1013.5 mb 0.00 in0.0 mm 0.00 in0.0 mm 0.00 in0.0 mm
07:00 AM 74.6°F23.7°C 65.4°F18.6°C 73% 2.5 mph NE4.0 kmh NE 7.0 mph11.3 kmh 29.93 in1013.5 mb 0.00 in0.0 mm 0.00 in0.0 mm 0.00 in0.0 mm
07:05 AM 74.7°F23.7°C 65.5°F18.6°C 73% 3.1 mph NE5.0 kmh NE 7.0 mph11.3 kmh 29.93 in1013.5 mb 0.00 in0.0 mm 0.00 in0.0 mm 0.00 in0.0 mm
07:10 AM 75.0°F23.9°C 65.3°F18.5°C 72% 3.2 mph NE5.1 kmh NE 7.0 mph11.3 kmh 29.93 in1013.5 mb 0.00 in0.0 mm 0.00 in0.0 mm 0.00 in0.0 mm
07:15 AM 75.3°F24.1°C 65.6°F18.7°C 72% 3.3 mph NNE5.3 kmh NNE 6.0 mph9.7 kmh 29.93 in1013.5 mb 0.00 in0.0 mm 0.00 in0.0 mm 0.00 in0.0 mm
07:20 AM 75.5°F24.2°C 65.8°F18.8°C 72% 2.4 mph NE3.9 kmh NE 5.0 mph8.0 kmh 29.93 in1013.5 mb 0.00 in0.0 mm 0.00 in0.0 mm 0.00 in0.0 mm
07:25 AM 75.5°F24.2°C 65.0°F18.3°C 70% 4.2 mph NE6.8 kmh NE 7.0 mph11.3 kmh 29.93 in1013.5 mb 0.00 in0.0 mm 0.00 in0.0 mm 0.00 in0.0 mm
07:30 AM 75.6°F24.2°C 65.5°F18.6°C 71% 3.4 mph NE5.5 kmh NE 7.0 mph11.3 kmh 29.93 in1013.5 mb 0.00 in0.0 mm 0.00 in0.0 mm 0.00 in0.0 mm
07:35 AM 75.9°F24.4°C 65.4°F18.6°C 70% 2.7 mph NE4.3 kmh NE 6.0 mph9.7 kmh 29.93 in1013.5 mb 0.00 in0.0 mm 0.00 in0.0 mm 0.00 in0.0 mm
07:40 AM 75.9°F24.4°C 65.8°F18.8°C 71% 2.7 mph NE4.3 kmh NE 6.0 mph9.7 kmh 29.93 in1013.5 mb 0.00 in0.0 mm 0.00 in0.0 mm 0.00 in0.0 mm
07:45 AM 76.2°F24.6°C 66.1°F18.9°C 71% 2.4 mph NE3.9 kmh NE 5.0 mph8.0 kmh 29.93 in1013.5 mb 0.00 in0.0 mm 0.00 in0.0 mm 0.00 in0.0 mm
07:50 AM 76.6°F24.8°C 65.7°F18.7°C 69% 3.7 mph NE6.0 kmh NE 7.0 mph11.3 kmh 29.93 in1013.5 mb 0.00 in0.0 mm 0.00 in0.0 mm 0.00 in0.0 mm
07:55 AM 76.9°F24.9°C 65.5°F18.6°C 68% 3.5 mph NE5.6 kmh NE 8.0 mph12.9 kmh 29.93 in1013.5 mb 0.00 in0.0 mm 0.00 in0.0 mm 0.00 in0.0 mm
08:00 AM 77.4°F25.2°C 65.6°F18.7°C 67% 3.5 mph NE5.6 kmh NE 8.0 mph12.9 kmh 29.93 in1013.5 mb 0.00 in0.0 mm 0.00 in0.0 mm 0.00 in0.0 mm
08:05 AM 77.4°F25.2°C 65.1°F18.4°C 66% 3.2 mph NE5.1 kmh NE 7.0 mph11.3 kmh 29.94 in1013.9 mb 0.00 in0.0 mm 0.00 in0.0 mm 0.00 in0.0 mm
08:10 AM 77.8°F25.4°C 65.5°F18.6°C 66% 3.7 mph NNE6.0 kmh NNE 6.0 mph9.7 kmh 29.94 in1013.9 mb 0.00 in0.0 mm 0.00 in0.0 mm 0.00 in0.0 mm
08:15 AM 78.4°F25.8°C 65.6°F18.7°C 65% 4.0 mph NE6.4 kmh NE 7.0 mph11.3 kmh 29.94 in1013.9 mb 0.00 in0.0 mm 0.00 in0.0 mm 0.00 in0.0 mm
08:20 AM 78.5°F25.8°C 65.3°F18.5°C 64% 4.0 mph NE6.4 kmh NE 7.0 mph11.3 kmh 29.94 in1013.9 mb 0.00 in0.0 mm 0.00 in0.0 mm 0.00 in0.0 mm
08:25 AM 78.7°F25.9°C 65.5°F18.6°C 64% 4.2 mph NE6.8 kmh NE 7.0 mph11.3 kmh 29.94 in1013.9 mb 0.00 in0.0 mm 0.00 in0.0 mm 0.00 in0.0 mm
08:30 AM 79.1°F26.2°C 65.4°F18.6°C 63% 3.6 mph NE5.8 kmh NE 7.0 mph11.3 kmh 29.93 in1013.5 mb 0.00 in0.0 mm 0.00 in0.0 mm 0.00 in0.0 mm
08:35 AM 79.2°F26.2°C 65.5°F18.6°C 63% 3.3 mph NE5.3 kmh NE 7.0 mph11.3 kmh 29.93 in1013.5 mb 0.00 in0.0 mm 0.00 in0.0 mm 0.00 in0.0 mm
08:40 AM 79.7°F26.5°C 66.0°F18.9°C 63% 3.1 mph NE5.0 kmh NE 6.0 mph9.7 kmh 29.93 in1013.5 mb 0.00 in0.0 mm 0.00 in0.0 mm 0.00 in0.0 mm
08:45 AM 80.1°F26.7°C 65.9°F18.8°C 62% 4.0 mph NE6.4 kmh NE 6.0 mph9.7 kmh 29.93 in1013.5 mb 0.00 in0.0 mm 0.00 in0.0 mm 0.00 in0.0 mm
08:50 AM 80.3°F26.8°C 65.6°F18.7°C 61% 3.2 mph NNE5.1 kmh NNE 7.0 mph11.3 kmh 29.93 in1013.5 mb 0.00 in0.0 mm 0.00 in0.0 mm 0.00 in0.0 mm
08:55 AM 80.8°F27.1°C 65.6°F18.7°C 60% 3.3 mph N5.3 kmh N 7.0 mph11.3 kmh 29.93 in1013.5 mb 0.00 in0.0 mm 0.00 in0.0 mm 0.00 in0.0 mm
09:00 AM 81.1°F27.3°C 65.9°F18.8°C 60% 4.2 mph NNE6.8 kmh NNE 8.0 mph12.9 kmh 29.93 in1013.5 mb 0.00 in0.0 mm 0.00 in0.0 mm 0.00 in0.0 mm
09:05 AM 81.3°F27.4°C 65.6°F18.7°C 59% 3.2 mph NE5.1 kmh NE 8.0 mph12.9 kmh 29.93 in1013.5 mb 0.00 in0.0 mm 0.00 in0.0 mm 0.00 in0.0 mm
09:10 AM 81.7°F27.6°C 66.0°F18.9°C 59% 3.7 mph NE6.0 kmh NE 9.0 mph14.5 kmh 29.93 in1013.5 mb 0.00 in0.0 mm 0.00 in0.0 mm 0.00 in0.0 mm
09:15 AM 82.1°F27.8°C 65.8°F18.8°C 58% 3.7 mph NE6.0 kmh NE 9.0 mph14.5 kmh 29.93 in1013.5 mb 0.00 in0.0 mm 0.00 in0.0 mm 0.00 in0.0 mm
09:20 AM 82.3°F27.9°C 65.5°F18.6°C 57% 4.0 mph NE6.4 kmh NE 8.0 mph12.9 kmh 29.93 in1013.5 mb 0.00 in0.0 mm 0.00 in0.0 mm 0.00 in0.0 mm
09:25 AM 82.3°F27.9°C 65.5°F18.6°C 57% 3.1 mph ENE5.0 kmh ENE 7.0 mph11.3 kmh 29.93 in1013.5 mb 0.00 in0.0 mm 0.00 in0.0 mm 0.00 in0.0 mm
09:30 AM 82.3°F27.9°C 65.5°F18.6°C 57% 4.0 mph ENE6.4 kmh ENE 7.0 mph11.3 kmh 29.93 in1013.5 mb 0.00 in0.0 mm 0.00 in0.0 mm 0.00 in0.0 mm
09:35 AM 82.7°F28.2°C 65.4°F18.6°C 56% 4.8 mph ENE7.7 kmh ENE 9.0 mph14.5 kmh 29.93 in1013.5 mb 0.00 in0.0 mm 0.00 in0.0 mm 0.00 in0.0 mm
09:40 AM 83.2°F28.4°C 66.4°F19.1°C 57% 3.0 mph NE4.8 kmh NE 9.0 mph14.5 kmh 29.93 in1013.5 mb 0.00 in0.0 mm 0.00 in0.0 mm 0.00 in0.0 mm
09:45 AM 83.3°F28.5°C 65.9°F18.8°C 56% 4.5 mph NE7.2 kmh NE 9.0 mph14.5 kmh 29.93 in1013.5 mb 0.00 in0.0 mm 0.00 in0.0 mm 0.00 in0.0 mm
09:50 AM 83.8°F28.8°C 66.4°F19.1°C 56% 3.2 mph NE5.1 kmh NE 9.0 mph14.5 kmh 29.93 in1013.5 mb 0.00 in0.0 mm 0.00 in0.0 mm 0.00 in0.0 mm
09:55 AM 84.1°F28.9°C 67.2°F19.6°C 57% 3.4 mph ENE5.5 kmh ENE 7.0 mph11.3 kmh 29.93 in1013.5 mb 0.00 in0.0 mm 0.00 in0.0 mm 0.00 in0.0 mm
10:00 AM 84.3°F29.1°C 66.9°F19.4°C 56% 3.5 mph NNE5.6 kmh NNE 7.0 mph11.3 kmh 29.93 in1013.5 mb 0.00 in0.0 mm 0.00 in0.0 mm 0.00 in0.0 mm
10:05 AM 83.7°F28.7°C 65.8°F18.8°C 55% 1.9 mph NNE3.1 kmh NNE 7.0 mph11.3 kmh 29.93 in1013.5 mb 0.00 in0.0 mm 0.00 in0.0 mm 0.00 in0.0 mm
10:10 AM 84.9°F29.4°C 65.8°F18.8°C 53% 3.6 mph NE5.8 kmh NE 9.0 mph14.5 kmh 29.93 in1013.5 mb 0.00 in0.0 mm 0.00 in0.0 mm 0.00 in0.0 mm
10:15 AM 84.8°F29.3°C 65.7°F18.7°C 53% 4.1 mph NE6.6 kmh NE 9.0 mph14.5 kmh 29.93 in1013.5 mb 0.00 in0.0 mm 0.00 in0.0 mm 0.00 in0.0 mm
10:20 AM 85.1°F29.5°C 67.1°F19.5°C 55% 4.7 mph NE7.6 kmh NE 8.0 mph12.9 kmh 29.93 in1013.5 mb 0.00 in0.0 mm 0.00 in0.0 mm 0.00 in0.0 mm
10:25 AM 85.5°F29.7°C 67.5°F19.7°C 55% 3.4 mph NE5.5 kmh NE 8.0 mph12.9 kmh 29.93 in1013.5 mb 0.00 in0.0 mm 0.00 in0.0 mm 0.00 in0.0 mm
10:30 AM 85.6°F29.8°C 65.4°F18.6°C 51% 4.2 mph ENE6.8 kmh ENE 11.0 mph17.7 kmh 29.93 in1013.5 mb 0.00 in0.0 mm 0.00 in0.0 mm 0.00 in0.0 mm
10:35 AM 86.3°F30.2°C 66.6°F19.2°C 52% 3.5 mph ENE5.6 kmh ENE 11.0 mph17.7 kmh 29.93 in1013.5 mb 0.00 in0.0 mm 0.00 in0.0 mm 0.00 in0.0 mm
10:40 AM 86.4°F30.2°C 66.1°F18.9°C 51% 4.7 mph NNE7.6 kmh NNE 9.0 mph14.5 kmh 29.93 in1013.5 mb 0.00 in0.0 mm 0.00 in0.0 mm 0.00 in0.0 mm
10:45 AM 86.3°F30.2°C 66.6°F19.2°C 52% 4.0 mph NE6.4 kmh NE 9.0 mph14.5 kmh 29.93 in1013.5 mb 0.00 in0.0 mm 0.00 in0.0 mm 0.00 in0.0 mm
10:50 AM 86.5°F30.3°C 65.6°F18.7°C 50% 5.1 mph NE8.2 kmh NE 9.0 mph14.5 kmh 29.93 in1013.5 mb 0.00 in0.0 mm 0.00 in0.0 mm 0.00 in0.0 mm
10:55 AM 86.4°F30.2°C 66.1°F18.9°C 51% 3.5 mph ENE5.6 kmh ENE 9.0 mph14.5 kmh 29.93 in1013.5 mb 0.00 in0.0 mm 0.00 in0.0 mm 0.00 in0.0 mm
11:00 AM 86.6°F30.3°C 66.3°F19.1°C 51% 2.3 mph E3.7 kmh E 8.0 mph12.9 kmh 29.92 in1013.2 mb 0.00 in0.0 mm 0.00 in0.0 mm 0.00 in0.0 mm
11:05 AM 86.9°F30.5°C 65.4°F18.6°C 49% 4.6 mph ENE7.4 kmh ENE 10.0 mph16.1 kmh 29.92 in1013.2 mb 0.00 in0.0 mm 0.00 in0.0 mm 0.00 in0.0 mm
11:10 AM 86.7°F30.4°C 68.0°F20.0°C 54% 3.6 mph ENE5.8 kmh ENE 10.0 mph16.1 kmh 29.92 in1013.2 mb 0.00 in0.0 mm 0.00 in0.0 mm 0.00 in0.0 mm
11:15 AM 87.0°F30.6°C 66.1°F18.9°C 50% 4.1 mph ENE6.6 kmh ENE 10.0 mph16.1 kmh 29.92 in1013.2 mb 0.00 in0.0 mm 0.00 in0.0 mm 0.00 in0.0 mm
11:20 AM 86.2°F30.1°C 65.9°F18.8°C 51% 4.3 mph NE6.9 kmh NE 10.0 mph16.1 kmh 29.92 in1013.2 mb 0.00 in0.0 mm 0.00 in0.0 mm 0.00 in0.0 mm
11:25 AM 86.9°F30.5°C 66.0°F18.9°C 50% 3.5 mph NNE5.6 kmh NNE 8.0 mph12.9 kmh 29.92 in1013.2 mb 0.00 in0.0 mm 0.00 in0.0 mm 0.00 in0.0 mm
11:30 AM 86.4°F30.2°C 66.1°F18.9°C 51% 2.4 mph ENE3.9 kmh ENE 8.0 mph12.9 kmh 29.92 in1013.2 mb 0.00 in0.0 mm 0.00 in0.0 mm 0.00 in0.0 mm
11:35 AM 86.4°F30.2°C 65.5°F18.6°C 50% 3.3 mph NE5.3 kmh NE 7.0 mph11.3 kmh 29.92 in1013.2 mb 0.00 in0.0 mm 0.00 in0.0 mm 0.00 in0.0 mm
11:40 AM 86.8°F30.4°C 67.0°F19.4°C 52% 4.2 mph NNE6.8 kmh NNE 7.0 mph11.3 kmh 29.91 in1012.9 mb 0.00 in0.0 mm 0.00 in0.0 mm 0.00 in0.0 mm
11:45 AM 87.2°F30.7°C 65.7°F18.7°C 49% 3.7 mph NE6.0 kmh NE 7.0 mph11.3 kmh 29.91 in1012.9 mb 0.00 in0.0 mm 0.00 in0.0 mm 0.00 in0.0 mm
11:50 AM 87.6°F30.9°C 67.2°F19.6°C 51% 3.0 mph N4.8 kmh N 7.0 mph11.3 kmh 29.91 in1012.9 mb 0.00 in0.0 mm 0.00 in0.0 mm 0.00 in0.0 mm
11:55 AM 87.7°F30.9°C 66.7°F19.3°C 50% 4.0 mph NE6.4 kmh NE 8.0 mph12.9 kmh 29.91 in1012.9 mb 0.00 in0.0 mm 0.00 in0.0 mm 0.00 in0.0 mm
12:00 PM 86.7°F30.4°C 66.4°F19.1°C 51% 3.5 mph N5.6 kmh N 8.0 mph12.9 kmh 29.91 in1012.9 mb 0.00 in0.0 mm 0.00 in0.0 mm 0.00 in0.0 mm
12:05 PM 86.9°F30.5°C 66.6°F19.2°C 51% 2.6 mph N4.2 kmh N 7.0 mph11.3 kmh 29.91 in1012.9 mb 0.00 in0.0 mm 0.00 in0.0 mm 0.00 in0.0 mm
12:10 PM 86.7°F30.4°C 66.4°F19.1°C 51% 3.8 mph N6.1 kmh N 8.0 mph12.9 kmh 29.91 in1012.9 mb 0.00 in0.0 mm 0.00 in0.0 mm 0.00 in0.0 mm
12:15 PM 87.6°F30.9°C 66.6°F19.2°C 50% 3.7 mph NE6.0 kmh NE 8.0 mph12.9 kmh 29.91 in1012.9 mb 0.00 in0.0 mm 0.00 in0.0 mm 0.00 in0.0 mm
12:20 PM 87.0°F30.6°C 66.1°F18.9°C 50% 2.6 mph NNE4.2 kmh NNE 7.0 mph11.3 kmh 29.91 in1012.9 mb 0.00 in0.0 mm 0.00 in0.0 mm 0.00 in0.0 mm
12:25 PM 88.1°F31.2°C 65.9°F18.8°C 48% 4.5 mph NE7.2 kmh NE 8.0 mph12.9 kmh 29.91 in1012.9 mb 0.00 in0.0 mm 0.00 in0.0 mm 0.00 in0.0 mm
12:30 PM 88.3°F31.3°C 65.5°F18.6°C 47% 2.5 mph ENE4.0 kmh ENE 8.0 mph12.9 kmh 29.91 in1012.9 mb 0.00 in0.0 mm 0.00 in0.0 mm 0.00 in0.0 mm
12:35 PM 89.2°F31.8°C 67.5°F19.7°C 49% 5.3 mph NE8.5 kmh NE 9.0 mph14.5 kmh 29.91 in1012.9 mb 0.00 in0.0 mm 0.00 in0.0 mm 0.00 in0.0 mm
12:40 PM 89.3°F31.8°C 67.0°F19.4°C 48% 3.3 mph NNE5.3 kmh NNE 9.0 mph14.5 kmh 29.91 in1012.9 mb 0.00 in0.0 mm 0.00 in0.0 mm 0.00 in0.0 mm
12:45 PM 88.4°F31.3°C 65.6°F18.7°C 47% 4.5 mph N7.2 kmh N 9.0 mph14.5 kmh 29.90 in1012.5 mb 0.00 in0.0 mm 0.00 in0.0 mm 0.00 in0.0 mm
12:50 PM 89.3°F31.8°C 67.0°F19.4°C 48% 3.7 mph NE6.0 kmh NE 9.0 mph14.5 kmh 29.90 in1012.5 mb 0.00 in0.0 mm 0.00 in0.0 mm 0.00 in0.0 mm
12:55 PM 89.7°F32.1°C 67.4°F19.7°C 48% 3.2 mph NNE5.1 kmh NNE 8.0 mph12.9 kmh 29.90 in1012.5 mb 0.00 in0.0 mm 0.00 in0.0 mm 0.00 in0.0 mm
01:00 PM 89.1°F31.7°C 66.2°F19.0°C 47% 3.1 mph NE5.0 kmh NE 7.0 mph11.3 kmh 29.90 in1012.5 mb 0.00 in0.0 mm 0.00 in0.0 mm 0.00 in0.0 mm
01:05 PM 89.4°F31.9°C 67.7°F19.8°C 49% 3.3 mph NE5.3 kmh NE 7.0 mph11.3 kmh 29.90 in1012.5 mb 0.00 in0.0 mm 0.00 in0.0 mm 0.00 in0.0 mm
01:10 PM 89.9°F32.2°C 65.7°F18.7°C 45% 3.7 mph NE6.0 kmh NE 7.0 mph11.3 kmh 29.90 in1012.5 mb 0.00 in0.0 mm 0.00 in0.0 mm 0.00 in0.0 mm
01:15 PM 89.2°F31.8°C 65.7°F18.7°C 46% 4.0 mph NE6.4 kmh NE 9.0 mph14.5 kmh 29.90 in1012.5 mb 0.00 in0.0 mm 0.00 in0.0 mm 0.00 in0.0 mm
01:20 PM 89.0°F31.7°C 66.7°F19.3°C 48% 2.1 mph NE3.4 kmh NE 9.0 mph14.5 kmh 29.90 in1012.5 mb 0.00 in0.0 mm 0.00 in0.0 mm 0.00 in0.0 mm
01:25 PM 89.9°F32.2°C 66.9°F19.4°C 47% 2.7 mph NE4.3 kmh NE 9.0 mph14.5 kmh 29.90 in1012.5 mb 0.00 in0.0 mm 0.00 in0.0 mm 0.00 in0.0 mm
01:30 PM 89.6°F32.0°C 65.4°F18.6°C 45% 4.5 mph N7.2 kmh N 7.0 mph11.3 kmh 29.90 in1012.5 mb 0.00 in0.0 mm 0.00 in0.0 mm 0.00 in0.0 mm
01:35 PM 90.0°F32.2°C 65.1°F18.4°C 44% 2.7 mph NW4.3 kmh NW 7.0 mph11.3 kmh 29.90 in1012.5 mb 0.00 in0.0 mm 0.00 in0.0 mm 0.00 in0.0 mm
01:40 PM 88.8°F31.6°C 65.9°F18.8°C 47% 0.8 mph NW1.3 kmh NW 5.0 mph8.0 kmh 29.90 in1012.5 mb 0.00 in0.0 mm 0.00 in0.0 mm 0.00 in0.0 mm
01:45 PM 89.2°F31.8°C 65.7°F18.7°C 46% 2.4 mph E3.9 kmh E 6.0 mph9.7 kmh 29.90 in1012.5 mb 0.00 in0.0 mm 0.00 in0.0 mm 0.00 in0.0 mm
01:50 PM 90.0°F32.2°C 65.8°F18.8°C 45% 4.1 mph ENE6.6 kmh ENE 9.0 mph14.5 kmh 29.89 in1012.2 mb 0.00 in0.0 mm 0.00 in0.0 mm 0.00 in0.0 mm
01:55 PM 90.7°F32.6°C 65.1°F18.4°C 43% 3.9 mph NNE6.3 kmh NNE 9.0 mph14.5 kmh 29.89 in1012.2 mb 0.00 in0.0 mm 0.00 in0.0 mm 0.00 in0.0 mm
02:00 PM 90.8°F32.7°C 67.1°F19.5°C 46% 2.3 mph NNE3.7 kmh NNE 8.0 mph12.9 kmh 29.89 in1012.2 mb 0.00 in0.0 mm 0.00 in0.0 mm 0.00 in0.0 mm
02:05 PM 91.0°F32.8°C 65.4°F18.6°C 43% 3.2 mph NNE5.1 kmh NNE 8.0 mph12.9 kmh 29.89 in1012.2 mb 0.00 in0.0 mm 0.00 in0.0 mm 0.00 in0.0 mm
02:10 PM 89.8°F32.1°C 65.6°F18.7°C 45% 3.2 mph N5.1 kmh N 8.0 mph12.9 kmh 29.89 in1012.2 mb 0.00 in0.0 mm 0.00 in0.0 mm 0.00 in0.0 mm
02:15 PM 90.5°F32.5°C 65.6°F18.7°C 44% 3.0 mph N4.8 kmh N 7.0 mph11.3 kmh 29.89 in1012.2 mb 0.00 in0.0 mm 0.00 in0.0 mm 0.00 in0.0 mm
02:20 PM 91.4°F33.0°C 67.0°F19.4°C 45% 2.7 mph NE4.3 kmh NE 7.0 mph11.3 kmh 29.88 in1011.9 mb 0.00 in0.0 mm 0.00 in0.0 mm 0.00 in0.0 mm
02:25 PM 92.2°F33.4°C 66.4°F19.1°C 43% 2.4 mph N3.9 kmh N 9.0 mph14.5 kmh 29.88 in1011.9 mb 0.00 in0.0 mm 0.00 in0.0 mm 0.00 in0.0 mm
02:30 PM 91.8°F33.2°C 64.7°F18.2°C 41% 4.5 mph NNE7.2 kmh NNE 9.0 mph14.5 kmh 29.88 in1011.9 mb 0.00 in0.0 mm 0.00 in0.0 mm 0.00 in0.0 mm
02:35 PM 91.3°F32.9°C 64.9°F18.3°C 42% 2.2 mph NNE3.5 kmh NNE 8.0 mph12.9 kmh 29.88 in1011.9 mb 0.00 in0.0 mm 0.00 in0.0 mm 0.00 in0.0 mm
02:40 PM 92.2°F33.4°C 65.8°F18.8°C 42% 1.8 mph ENE2.9 kmh ENE 6.0 mph9.7 kmh 29.88 in1011.9 mb 0.00 in0.0 mm 0.00 in0.0 mm 0.00 in0.0 mm
02:45 PM 92.6°F33.7°C 66.1°F18.9°C 42% 1.6 mph NE2.6 kmh NE 8.0 mph12.9 kmh 29.88 in1011.9 mb 0.00 in0.0 mm 0.00 in0.0 mm 0.00 in0.0 mm
02:50 PM 91.6°F33.1°C 65.2°F18.4°C 42% 3.7 mph NE6.0 kmh NE 8.0 mph12.9 kmh 29.88 in1011.9 mb 0.00 in0.0 mm 0.00 in0.0 mm 0.00 in0.0 mm
02:55 PM 90.7°F32.6°C 65.1°F18.4°C 43% 0.7 mph NE1.1 kmh NE 7.0 mph11.3 kmh 29.88 in1011.9 mb 0.00 in0.0 mm 0.00 in0.0 mm 0.00 in0.0 mm
03:00 PM 90.9°F32.7°C 65.9°F18.8°C 44% 1.1 mph NE1.8 kmh NE 3.0 mph4.8 kmh 29.88 in1011.9 mb 0.00 in0.0 mm 0.00 in0.0 mm 0.00 in0.0 mm
03:05 PM 92.3°F33.5°C 64.4°F18.0°C 40% 2.4 mph W3.9 kmh W 6.0 mph9.7 kmh 29.87 in1011.5 mb 0.00 in0.0 mm 0.00 in0.0 mm 0.00 in0.0 mm
03:10 PM 91.9°F33.3°C 68.1°F20.1°C 46% 2.8 mph SW4.5 kmh SW 7.0 mph11.3 kmh 29.87 in1011.5 mb 0.00 in0.0 mm 0.00 in0.0 mm 0.00 in0.0 mm
03:15 PM 92.0°F33.3°C 63.4°F17.4°C 39% 2.2 mph W3.5 kmh W 7.0 mph11.3 kmh 29.87 in1011.5 mb 0.00 in0.0 mm 0.00 in0.0 mm 0.00 in0.0 mm
03:20 PM 92.2°F33.4°C 67.1°F19.5°C 44% 2.3 mph WSW3.7 kmh WSW 7.0 mph11.3 kmh 29.87 in1011.5 mb 0.00 in0.0 mm 0.00 in0.0 mm 0.00 in0.0 mm
03:25 PM 91.3°F32.9°C 67.6°F19.8°C 46% 1.8 mph SW2.9 kmh SW 7.0 mph11.3 kmh 29.87 in1011.5 mb 0.00 in0.0 mm 0.00 in0.0 mm 0.00 in0.0 mm
03:30 PM 90.4°F32.4°C 65.5°F18.6°C 44% 1.1 mph SSW1.8 kmh SSW 4.0 mph6.4 kmh 29.87 in1011.5 mb 0.00 in0.0 mm 0.00 in0.0 mm 0.00 in0.0 mm
03:35 PM 90.9°F32.7°C 67.8°F19.9°C 47% 0.4 mph SSW0.6 kmh SSW 3.0 mph4.8 kmh 29.86 in1011.2 mb 0.00 in0.0 mm 0.00 in0.0 mm 0.00 in0.0 mm
03:40 PM 92.1°F33.4°C 67.0°F19.4°C 44% 3.3 mph SSW5.3 kmh SSW 8.0 mph12.9 kmh 29.86 in1011.2 mb 0.00 in0.0 mm 0.00 in0.0 mm 0.00 in0.0 mm
03:45 PM 91.6°F33.1°C 67.2°F19.6°C 45% 4.9 mph SW7.9 kmh SW 9.0 mph14.5 kmh 29.86 in1011.2 mb 0.00 in0.0 mm 0.00 in0.0 mm 0.00 in0.0 mm
03:50 PM 90.4°F32.4°C 66.8°F19.3°C 46% 4.4 mph SW7.1 kmh SW 10.0 mph16.1 kmh 29.86 in1011.2 mb 0.00 in0.0 mm 0.00 in0.0 mm 0.00 in0.0 mm
03:55 PM 90.8°F32.7°C 66.5°F19.2°C 45% 5.0 mph SSW8.0 kmh SSW 10.0 mph16.1 kmh 29.86 in1011.2 mb 0.00 in0.0 mm 0.00 in0.0 mm 0.00 in0.0 mm
04:00 PM 90.6°F32.6°C 65.7°F18.7°C 44% 4.9 mph SSW7.9 kmh SSW 8.0 mph12.9 kmh 29.86 in1011.2 mb 0.00 in0.0 mm 0.00 in0.0 mm 0.00 in0.0 mm
04:05 PM 90.1°F32.3°C 65.9°F18.8°C 45% 2.6 mph SSW4.2 kmh SSW 8.0 mph12.9 kmh 29.86 in1011.2 mb 0.00 in0.0 mm 0.00 in0.0 mm 0.00 in0.0 mm
04:10 PM 90.4°F32.4°C 66.1°F18.9°C 45% 0.8 mph S1.3 kmh S 7.0 mph11.3 kmh 29.86 in1011.2 mb 0.00 in0.0 mm 0.00 in0.0 mm 0.00 in0.0 mm
04:15 PM 90.4°F32.4°C 66.1°F18.9°C 45% 1.9 mph WSW3.1 kmh WSW 6.0 mph9.7 kmh 29.85 in1010.8 mb 0.00 in0.0 mm 0.00 in0.0 mm 0.00 in0.0 mm
04:20 PM 91.2°F32.9°C 66.8°F19.3°C 45% 4.0 mph SW6.4 kmh SW 10.0 mph16.1 kmh 29.85 in1010.8 mb 0.00 in0.0 mm 0.00 in0.0 mm 0.00 in0.0 mm
04:25 PM 91.3°F32.9°C 66.3°F19.1°C 44% 5.8 mph SSW9.3 kmh SSW 10.0 mph16.1 kmh 29.85 in1010.8 mb 0.00 in0.0 mm 0.00 in0.0 mm 0.00 in0.0 mm
04:30 PM 91.1°F32.8°C 66.8°F19.3°C 45% 5.0 mph SSW8.0 kmh SSW 12.0 mph19.3 kmh 29.85 in1010.8 mb 0.00 in0.0 mm 0.00 in0.0 mm 0.00 in0.0 mm
04:35 PM 90.3°F32.4°C 66.7°F19.3°C 46% 5.7 mph SSW9.2 kmh SSW 12.0 mph19.3 kmh 29.85 in1010.8 mb 0.00 in0.0 mm 0.00 in0.0 mm 0.00 in0.0 mm
04:40 PM 89.9°F32.2°C 66.3°F19.1°C 46% 4.8 mph SW7.7 kmh SW 10.0 mph16.1 kmh 29.85 in1010.8 mb 0.00 in0.0 mm 0.00 in0.0 mm 0.00 in0.0 mm
04:45 PM 90.1°F32.3°C 66.5°F19.2°C 46% 2.4 mph SW3.9 kmh SW 10.0 mph16.1 kmh 29.85 in1010.8 mb 0.00 in0.0 mm 0.00 in0.0 mm 0.00 in0.0 mm
04:50 PM 91.0°F32.8°C 66.7°F19.3°C 45% 5.3 mph SSW8.5 kmh SSW 9.0 mph14.5 kmh 29.84 in1010.5 mb 0.00 in0.0 mm 0.00 in0.0 mm 0.00 in0.0 mm
04:55 PM 90.6°F32.6°C 65.7°F18.7°C 44% 4.8 mph SSW7.7 kmh SSW 10.0 mph16.1 kmh 29.84 in1010.5 mb 0.00 in0.0 mm 0.00 in0.0 mm 0.00 in0.0 mm
05:00 PM 90.2°F32.3°C 66.6°F19.2°C 46% 3.8 mph SW6.1 kmh SW 10.0 mph16.1 kmh 29.84 in1010.5 mb 0.00 in0.0 mm 0.00 in0.0 mm 0.00 in0.0 mm
05:05 PM 90.0°F32.2°C 66.4°F19.1°C 46% 3.5 mph SW5.6 kmh SW 9.0 mph14.5 kmh 29.84 in1010.5 mb 0.00 in0.0 mm 0.00 in0.0 mm 0.00 in0.0 mm
05:10 PM 90.9°F32.7°C 66.6°F19.2°C 45% 3.2 mph SW5.1 kmh SW 9.0 mph14.5 kmh 29.84 in1010.5 mb 0.00 in0.0 mm 0.00 in0.0 mm 0.00 in0.0 mm
05:15 PM 91.5°F33.1°C 65.8°F18.8°C 43% 4.9 mph SSW7.9 kmh SSW 10.0 mph16.1 kmh 29.84 in1010.5 mb 0.00 in0.0 mm 0.00 in0.0 mm 0.00 in0.0 mm
05:20 PM 91.5°F33.1°C 66.5°F19.2°C 44% 4.3 mph SW6.9 kmh SW 10.0 mph16.1 kmh 29.84 in1010.5 mb 0.00 in0.0 mm 0.00 in0.0 mm 0.00 in0.0 mm
05:25 PM 91.7°F33.2°C 66.0°F18.9°C 43% 3.6 mph SW5.8 kmh SW 8.0 mph12.9 kmh 29.84 in1010.5 mb 0.00 in0.0 mm 0.00 in0.0 mm 0.00 in0.0 mm
05:30 PM 91.7°F33.2°C 65.3°F18.5°C 42% 4.1 mph SW6.6 kmh SW 8.0 mph12.9 kmh 29.84 in1010.5 mb 0.00 in0.0 mm 0.00 in0.0 mm 0.00 in0.0 mm
05:35 PM 91.8°F33.2°C 66.1°F18.9°C 43% 2.1 mph SW3.4 kmh SW 8.0 mph12.9 kmh 29.84 in1010.5 mb 0.00 in0.0 mm 0.00 in0.0 mm 0.00 in0.0 mm
05:40 PM 91.5°F33.1°C 66.5°F19.2°C 44% 4.4 mph SW7.1 kmh SW 7.0 mph11.3 kmh 29.84 in1010.5 mb 0.00 in0.0 mm 0.00 in0.0 mm 0.00 in0.0 mm
05:45 PM 90.9°F32.7°C 66.6°F19.2°C 45% 4.8 mph SW7.7 kmh SW 10.0 mph16.1 kmh 29.84 in1010.5 mb 0.00 in0.0 mm 0.00 in0.0 mm 0.00 in0.0 mm
05:50 PM 90.2°F32.3°C 66.6°F19.2°C 46% 3.4 mph SW5.5 kmh SW 10.0 mph16.1 kmh 29.84 in1010.5 mb 0.00 in0.0 mm 0.00 in0.0 mm 0.00 in0.0 mm
05:55 PM 90.2°F32.3°C 67.8°F19.9°C 48% 1.9 mph SW3.1 kmh SW 7.0 mph11.3 kmh 29.84 in1010.5 mb 0.00 in0.0 mm 0.00 in0.0 mm 0.00 in0.0 mm
06:00 PM 91.1°F32.8°C 65.4°F18.6°C 43% 0.9 mph SW1.4 kmh SW 5.0 mph8.0 kmh 29.84 in1010.5 mb 0.00 in0.0 mm 0.00 in0.0 mm 0.00 in0.0 mm
06:05 PM 91.7°F33.2°C 65.3°F18.5°C 42% 2.0 mph SW3.2 kmh SW 5.0 mph8.0 kmh 29.84 in1010.5 mb 0.00 in0.0 mm 0.00 in0.0 mm 0.00 in0.0 mm
06:10 PM 92.0°F33.3°C 64.9°F18.3°C 41% 2.1 mph WNW3.4 kmh WNW 5.0 mph8.0 kmh 29.84 in1010.5 mb 0.00 in0.0 mm 0.00 in0.0 mm 0.00 in0.0 mm
06:15 PM 92.0°F33.3°C 64.2°F17.9°C 40% 2.8 mph WNW4.5 kmh WNW 7.0 mph11.3 kmh 29.84 in1010.5 mb 0.00 in0.0 mm 0.00 in0.0 mm 0.00 in0.0 mm
06:20 PM 91.8°F33.2°C 64.0°F17.8°C 40% 0.9 mph W1.4 kmh W 7.0 mph11.3 kmh 29.84 in1010.5 mb 0.00 in0.0 mm 0.00 in0.0 mm 0.00 in0.0 mm
06:25 PM 91.5°F33.1°C 65.1°F18.4°C 42% 2.6 mph SW4.2 kmh SW 6.0 mph9.7 kmh 29.84 in1010.5 mb 0.00 in0.0 mm 0.00 in0.0 mm 0.00 in0.0 mm
06:30 PM 91.5°F33.1°C 65.8°F18.8°C 43% 2.5 mph W4.0 kmh W 6.0 mph9.7 kmh 29.84 in1010.5 mb 0.00 in0.0 mm 0.00 in0.0 mm 0.00 in0.0 mm
06:35 PM 91.3°F32.9°C 65.6°F18.7°C 43% 1.6 mph WSW2.6 kmh WSW 6.0 mph9.7 kmh 29.84 in1010.5 mb 0.00 in0.0 mm 0.00 in0.0 mm 0.00 in0.0 mm
06:40 PM 91.2°F32.9°C 64.9°F18.3°C 42% 2.5 mph W4.0 kmh W 5.0 mph8.0 kmh 29.84 in1010.5 mb 0.00 in0.0 mm 0.00 in0.0 mm 0.00 in0.0 mm
06:45 PM 91.1°F32.8°C 64.8°F18.2°C 42% 4.0 mph W6.4 kmh W 8.0 mph12.9 kmh 29.84 in1010.5 mb 0.00 in0.0 mm 0.00 in0.0 mm 0.00 in0.0 mm
06:50 PM 90.8°F32.7°C 65.2°F18.4°C 43% 2.4 mph WSW3.9 kmh WSW 8.0 mph12.9 kmh 29.84 in1010.5 mb 0.00 in0.0 mm 0.00 in0.0 mm 0.00 in0.0 mm
06:55 PM 90.4°F32.4°C 64.8°F18.2°C 43% 1.7 mph SW2.7 kmh SW 7.0 mph11.3 kmh 29.84 in1010.5 mb 0.00 in0.0 mm 0.00 in0.0 mm 0.00 in0.0 mm
07:00 PM 90.1°F32.3°C 65.2°F18.4°C 44% 2.1 mph WSW3.4 kmh WSW 5.0 mph8.0 kmh 29.84 in1010.5 mb 0.00 in0.0 mm 0.00 in0.0 mm 0.00 in0.0 mm
07:05 PM 89.8°F32.1°C 65.6°F18.7°C 45% 2.4 mph SW3.9 kmh SW 5.0 mph8.0 kmh 29.84 in1010.5 mb 0.00 in0.0 mm 0.00 in0.0 mm 0.00 in0.0 mm
07:10 PM 89.6°F32.0°C 65.4°F18.6°C 45% 2.8 mph SW4.5 kmh SW 5.0 mph8.0 kmh 29.84 in1010.5 mb 0.00 in0.0 mm 0.00 in0.0 mm 0.00 in0.0 mm
07:15 PM 89.4°F31.9°C 65.9°F18.8°C 46% 2.0 mph SW3.2 kmh SW 5.0 mph8.0 kmh 29.85 in1010.8 mb 0.00 in0.0 mm 0.00 in0.0 mm 0.00 in0.0 mm
07:20 PM 89.2°F31.8°C 65.7°F18.7°C 46% 2.0 mph SW3.2 kmh SW 5.0 mph8.0 kmh 29.85 in1010.8 mb 0.00 in0.0 mm 0.00 in0.0 mm 0.00 in0.0 mm
07:25 PM 88.7°F31.5°C 65.8°F18.8°C 47% 0.8 mph WSW1.3 kmh WSW 5.0 mph8.0 kmh 29.85 in1010.8 mb 0.00 in0.0 mm 0.00 in0.0 mm 0.00 in0.0 mm
07:30 PM 88.4°F31.3°C 66.2°F19.0°C 48% 1.6 mph SW2.6 kmh SW 3.0 mph4.8 kmh 29.85 in1010.8 mb 0.00 in0.0 mm 0.00 in0.0 mm 0.00 in0.0 mm
07:35 PM 88.1°F31.2°C 65.9°F18.8°C 48% 2.7 mph SW4.3 kmh SW 5.0 mph8.0 kmh 29.85 in1010.8 mb 0.00 in0.0 mm 0.00 in0.0 mm 0.00 in0.0 mm
07:40 PM 87.9°F31.1°C 66.3°F19.1°C 49% 2.0 mph SW3.2 kmh SW 5.0 mph8.0 kmh 29.85 in1010.8 mb 0.00 in0.0 mm 0.00 in0.0 mm 0.00 in0.0 mm
07:45 PM 87.7°F30.9°C 66.7°F19.3°C 50% 2.0 mph SW3.2 kmh SW 4.0 mph6.4 kmh 29.85 in1010.8 mb 0.00 in0.0 mm 0.00 in0.0 mm 0.00 in0.0 mm
07:50 PM 87.4°F30.8°C 66.4°F19.1°C 50% 1.8 mph SSW2.9 kmh SSW 5.0 mph8.0 kmh 29.85 in1010.8 mb 0.00 in0.0 mm 0.00 in0.0 mm 0.00 in0.0 mm
07:55 PM 87.2°F30.7°C 66.3°F19.1°C 50% 1.5 mph SSW2.4 kmh SSW 5.0 mph8.0 kmh 29.85 in1010.8 mb 0.00 in0.0 mm 0.00 in0.0 mm 0.00 in0.0 mm
08:00 PM 87.1°F30.6°C 66.2°F19.0°C 50% 1.7 mph SW2.7 kmh SW 4.0 mph6.4 kmh 29.85 in1010.8 mb 0.00 in0.0 mm 0.00 in0.0 mm 0.00 in0.0 mm
08:05 PM 87.0°F30.6°C 66.6°F19.2°C 51% 2.1 mph SW3.4 kmh SW 5.0 mph8.0 kmh 29.85 in1010.8 mb 0.00 in0.0 mm 0.00 in0.0 mm 0.00 in0.0 mm
08:10 PM 87.0°F30.6°C 66.1°F18.9°C 50% 2.2 mph SW3.5 kmh SW 5.0 mph8.0 kmh 29.85 in1010.8 mb 0.00 in0.0 mm 0.00 in0.0 mm 0.00 in0.0 mm
08:15 PM 86.8°F30.4°C 66.5°F19.2°C 51% 2.1 mph SW3.4 kmh SW 5.0 mph8.0 kmh 29.86 in1011.2 mb 0.00 in0.0 mm 0.00 in0.0 mm 0.00 in0.0 mm
08:20 PM 86.7°F30.4°C 66.4°F19.1°C 51% 2.1 mph SW3.4 kmh SW 5.0 mph8.0 kmh 29.86 in1011.2 mb 0.00 in0.0 mm 0.00 in0.0 mm 0.00 in0.0 mm
08:25 PM 86.6°F30.3°C 66.3°F19.1°C 51% 2.5 mph SW4.0 kmh SW 6.0 mph9.7 kmh 29.86 in1011.2 mb 0.00 in0.0 mm 0.00 in0.0 mm 0.00 in0.0 mm
08:30 PM 86.6°F30.3°C 66.3°F19.1°C 51% 1.8 mph SW2.9 kmh SW 6.0 mph9.7 kmh 29.86 in1011.2 mb 0.00 in0.0 mm 0.00 in0.0 mm 0.00 in0.0 mm
08:35 PM 86.6°F30.3°C 66.3°F19.1°C 51% 3.5 mph SW5.6 kmh SW 8.0 mph12.9 kmh 29.86 in1011.2 mb 0.00 in0.0 mm 0.00 in0.0 mm 0.00 in0.0 mm
08:40 PM 86.4°F30.2°C 66.7°F19.3°C 52% 3.6 mph SW5.8 kmh SW 8.0 mph12.9 kmh 29.86 in1011.2 mb 0.00 in0.0 mm 0.00 in0.0 mm 0.00 in0.0 mm
08:45 PM 86.1°F30.1°C 67.5°F19.7°C 54% 4.1 mph SW6.6 kmh SW 10.0 mph16.1 kmh 29.86 in1011.2 mb 0.00 in0.0 mm 0.00 in0.0 mm 0.00 in0.0 mm
08:50 PM 85.9°F29.9°C 67.8°F19.9°C 55% 3.8 mph SW6.1 kmh SW 11.0 mph17.7 kmh 29.87 in1011.5 mb 0.00 in0.0 mm 0.00 in0.0 mm 0.00 in0.0 mm
08:55 PM 85.8°F29.9°C 67.7°F19.8°C 55% 4.2 mph SW6.8 kmh SW 11.0 mph17.7 kmh 29.87 in1011.5 mb 0.00 in0.0 mm 0.00 in0.0 mm 0.00 in0.0 mm
09:00 PM 85.6°F29.8°C 68.1°F20.1°C 56% 4.0 mph SW6.4 kmh SW 8.0 mph12.9 kmh 29.87 in1011.5 mb 0.00 in0.0 mm 0.00 in0.0 mm 0.00 in0.0 mm
09:05 PM 85.5°F29.7°C 68.0°F20.0°C 56% 4.6 mph SW7.4 kmh SW 9.0 mph14.5 kmh 29.87 in1011.5 mb 0.00 in0.0 mm 0.00 in0.0 mm 0.00 in0.0 mm
09:10 PM 85.3°F29.6°C 67.8°F19.9°C 56% 3.2 mph SW5.1 kmh SW 9.0 mph14.5 kmh 29.87 in1011.5 mb 0.00 in0.0 mm 0.00 in0.0 mm 0.00 in0.0 mm
09:15 PM 85.1°F29.5°C 67.6°F19.8°C 56% 3.6 mph SW5.8 kmh SW 7.0 mph11.3 kmh 29.87 in1011.5 mb 0.00 in0.0 mm 0.00 in0.0 mm 0.00 in0.0 mm
09:20 PM 85.0°F29.4°C 68.0°F20.0°C 57% 3.7 mph SW6.0 kmh SW 7.0 mph11.3 kmh 29.88 in1011.9 mb 0.00 in0.0 mm 0.00 in0.0 mm 0.00 in0.0 mm
09:25 PM 84.9°F29.4°C 67.9°F19.9°C 57% 2.8 mph SW4.5 kmh SW 6.0 mph9.7 kmh 29.88 in1011.9 mb 0.00 in0.0 mm 0.00 in0.0 mm 0.00 in0.0 mm
09:30 PM 84.7°F29.3°C 67.8°F19.9°C 57% 2.7 mph SW4.3 kmh SW 7.0 mph11.3 kmh 29.88 in1011.9 mb 0.00 in0.0 mm 0.00 in0.0 mm 0.00 in0.0 mm
09:35 PM 84.6°F29.2°C 68.2°F20.1°C 58% 2.5 mph SW4.0 kmh SW 7.0 mph11.3 kmh 29.88 in1011.9 mb 0.00 in0.0 mm 0.00 in0.0 mm 0.00 in0.0 mm
09:40 PM 84.7°F29.3°C 67.8°F19.9°C 57% 3.4 mph SW5.5 kmh SW 8.0 mph12.9 kmh 29.88 in1011.9 mb 0.00 in0.0 mm 0.00 in0.0 mm 0.00 in0.0 mm
09:45 PM 84.6°F29.2°C 68.2°F20.1°C 58% 3.0 mph SW4.8 kmh SW 8.0 mph12.9 kmh 29.88 in1011.9 mb 0.00 in0.0 mm 0.00 in0.0 mm 0.00 in0.0 mm
09:50 PM 84.6°F29.2°C 68.2°F20.1°C 58% 2.8 mph SW4.5 kmh SW 7.0 mph11.3 kmh 29.89 in1012.2 mb 0.00 in0.0 mm 0.00 in0.0 mm 0.00 in0.0 mm
09:55 PM 84.4°F29.1°C 68.0°F20.0°C 58% 1.8 mph SW2.9 kmh SW 6.0 mph9.7 kmh 29.89 in1012.2 mb 0.00 in0.0 mm 0.00 in0.0 mm 0.00 in0.0 mm
10:00 PM 84.4°F29.1°C 68.0°F20.0°C 58% 3.1 mph SW5.0 kmh SW 6.0 mph9.7 kmh 29.89 in1012.2 mb 0.00 in0.0 mm 0.00 in0.0 mm 0.00 in0.0 mm
10:05 PM 84.3°F29.1°C 67.9°F19.9°C 58% 3.0 mph SW4.8 kmh SW 6.0 mph9.7 kmh 29.89 in1012.2 mb 0.00 in0.0 mm 0.00 in0.0 mm 0.00 in0.0 mm
10:10 PM 84.2°F29.0°C 67.8°F19.9°C 58% 3.3 mph SW5.3 kmh SW 7.0 mph11.3 kmh 29.89 in1012.2 mb 0.00 in0.0 mm 0.00 in0.0 mm 0.00 in0.0 mm
10:15 PM 84.1°F28.9°C 68.2°F20.1°C 59% 3.2 mph SW5.1 kmh SW 7.0 mph11.3 kmh 29.89 in1012.2 mb 0.00 in0.0 mm 0.00 in0.0 mm 0.00 in0.0 mm
10:20 PM 84.0°F28.9°C 68.1°F20.1°C 59% 3.7 mph SW6.0 kmh SW 7.0 mph11.3 kmh 29.89 in1012.2 mb 0.00 in0.0 mm 0.00 in0.0 mm 0.00 in0.0 mm
10:25 PM 83.8°F28.8°C 68.4°F20.2°C 60% 3.2 mph SW5.1 kmh SW 7.0 mph11.3 kmh 29.89 in1012.2 mb 0.00 in0.0 mm 0.00 in0.0 mm 0.00 in0.0 mm
10:30 PM 83.6°F28.7°C 68.2°F20.1°C 60% 2.5 mph SW4.0 kmh SW 7.0 mph11.3 kmh 29.89 in1012.2 mb 0.00 in0.0 mm 0.00 in0.0 mm 0.00 in0.0 mm
10:35 PM 83.5°F28.6°C 68.1°F20.1°C 60% 2.2 mph SW3.5 kmh SW 7.0 mph11.3 kmh 29.89 in1012.2 mb 0.00 in0.0 mm 0.00 in0.0 mm 0.00 in0.0 mm
10:40 PM 83.3°F28.5°C 68.4°F20.2°C 61% 1.5 mph SW2.4 kmh SW 4.0 mph6.4 kmh 29.89 in1012.2 mb 0.00 in0.0 mm 0.00 in0.0 mm 0.00 in0.0 mm
10:45 PM 83.3°F28.5°C 68.4°F20.2°C 61% 2.1 mph SW3.4 kmh SW 4.0 mph6.4 kmh 29.89 in1012.2 mb 0.00 in0.0 mm 0.00 in0.0 mm 0.00 in0.0 mm
10:50 PM 83.3°F28.5°C 68.4°F20.2°C 61% 2.4 mph SW3.9 kmh SW 5.0 mph8.0 kmh 29.89 in1012.2 mb 0.00 in0.0 mm 0.00 in0.0 mm 0.00 in0.0 mm
10:55 PM 83.2°F28.4°C 68.3°F20.2°C 61% 3.0 mph SW4.8 kmh SW 5.0 mph8.0 kmh 29.90 in1012.5 mb 0.00 in0.0 mm 0.00 in0.0 mm 0.00 in0.0 mm
11:00 PM 83.1°F28.4°C 68.2°F20.1°C 61% 3.2 mph SW5.1 kmh SW 6.0 mph9.7 kmh 29.90 in1012.5 mb 0.00 in0.0 mm 0.00 in0.0 mm 0.00 in0.0 mm
11:05 PM 83.0°F28.3°C 68.6°F20.3°C 62% 3.2 mph SW5.1 kmh SW 6.0 mph9.7 kmh 29.90 in1012.5 mb 0.00 in0.0 mm 0.00 in0.0 mm 0.00 in0.0 mm
11:10 PM 83.0°F28.3°C 68.6°F20.3°C 62% 3.5 mph SW5.6 kmh SW 6.0 mph9.7 kmh 29.89 in1012.2 mb 0.00 in0.0 mm 0.00 in0.0 mm 0.00 in0.0 mm
11:15 PM 82.8°F28.2°C 68.9°F20.5°C 63% 2.4 mph SW3.9 kmh SW 7.0 mph11.3 kmh 29.89 in1012.2 mb 0.00 in0.0 mm 0.00 in0.0 mm 0.00 in0.0 mm
11:20 PM 82.7°F28.2°C 68.8°F20.4°C 63% 3.0 mph SW4.8 kmh SW 7.0 mph11.3 kmh 29.89 in1012.2 mb 0.00 in0.0 mm 0.00 in0.0 mm 0.00 in0.0 mm
11:25 PM 82.5°F28.1°C 69.1°F20.6°C 64% 2.9 mph SW4.7 kmh SW 7.0 mph11.3 kmh 29.89 in1012.2 mb 0.00 in0.0 mm 0.00 in0.0 mm 0.00 in0.0 mm
11:30 PM 82.5°F28.1°C 69.1°F20.6°C 64% 2.5 mph SW4.0 kmh SW 6.0 mph9.7 kmh 29.89 in1012.2 mb 0.00 in0.0 mm 0.00 in0.0 mm 0.00 in0.0 mm
11:35 PM 82.4°F28.0°C 69.4°F20.8°C 65% 3.1 mph SW5.0 kmh SW 8.0 mph12.9 kmh 29.89 in1012.2 mb 0.00 in0.0 mm 0.00 in0.0 mm 0.00 in0.0 mm
11:40 PM 82.3°F27.9°C 69.3°F20.7°C 65% 2.2 mph SW3.5 kmh SW 8.0 mph12.9 kmh 29.89 in1012.2 mb 0.00 in0.0 mm 0.00 in0.0 mm 0.00 in0.0 mm
11:45 PM 82.1°F27.8°C 69.6°F20.9°C 66% 2.5 mph SW4.0 kmh SW 6.0 mph9.7 kmh 29.89 in1012.2 mb 0.00 in0.0 mm 0.00 in0.0 mm 0.00 in0.0 mm
11:50 PM 82.1°F27.8°C 69.6°F20.9°C 66% 1.7 mph SW2.7 kmh SW 6.0 mph9.7 kmh 29.89 in1012.2 mb 0.00 in0.0 mm 0.00 in0.0 mm 0.00 in0.0 mm
11:55 PM 82.0°F27.8°C 69.9°F21.1°C 67% 2.0 mph SSW3.2 kmh SSW 5.0 mph8.0 kmh 29.89 in1012.2 mb 0.00 in0.0 mm 0.00 in0.0 mm 0.00 in0.0 mm